sensor_id;sensor_type;location;lat;lon;timestamp;P1;durP1;ratioP1;P2;durP2;ratioP2
43813;SDS011;29669;55.706;37.656;2023-08-20T00:00:12;19.20;;;13.38;;
43813;SDS011;29669;55.706;37.656;2023-08-20T00:02:46;18.23;;;12.38;;
43813;SDS011;29669;55.706;37.656;2023-08-20T00:05:18;18.45;;;12.65;;
43813;SDS011;29669;55.706;37.656;2023-08-20T00:07:46;18.45;;;13.15;;
43813;SDS011;29669;55.706;37.656;2023-08-20T00:10:14;18.08;;;12.77;;
43813;SDS011;29669;55.706;37.656;2023-08-20T00:12:45;19.80;;;13.18;;
43813;SDS011;29669;55.706;37.656;2023-08-20T00:15:12;16.52;;;12.52;;
43813;SDS011;29669;55.706;37.656;2023-08-20T00:17:40;15.25;;;12.30;;
43813;SDS011;29669;55.706;37.656;2023-08-20T00:20:08;15.77;;;12.00;;
43813;SDS011;29669;55.706;37.656;2023-08-20T00:22:43;21.55;;;13.27;;
43813;SDS011;29669;55.706;37.656;2023-08-20T00:25:13;20.65;;;12.85;;
43813;SDS011;29669;55.706;37.656;2023-08-20T00:27:42;16.95;;;12.73;;
43813;SDS011;29669;55.706;37.656;2023-08-20T00:30:10;17.50;;;13.00;;
43813;SDS011;29669;55.706;37.656;2023-08-20T00:32:39;18.17;;;13.30;;
43813;SDS011;29669;55.706;37.656;2023-08-20T00:35:06;19.13;;;13.90;;
43813;SDS011;29669;55.706;37.656;2023-08-20T00:37:36;18.25;;;13.52;;
43813;SDS011;29669;55.706;37.656;2023-08-20T00:40:04;23.25;;;12.65;;
43813;SDS011;29669;55.706;37.656;2023-08-20T00:42:32;16.52;;;12.38;;
43813;SDS011;29669;55.706;37.656;2023-08-20T00:45:00;24.10;;;15.02;;
43813;SDS011;29669;55.706;37.656;2023-08-20T00:47:30;24.98;;;14.68;;
43813;SDS011;29669;55.706;37.656;2023-08-20T00:49:59;24.23;;;15.65;;
43813;SDS011;29669;55.706;37.656;2023-08-20T00:52:27;19.67;;;14.88;;
43813;SDS011;29669;55.706;37.656;2023-08-20T00:54:55;20.90;;;14.40;;
43813;SDS011;29669;55.706;37.656;2023-08-20T00:57:23;28.27;;;15.35;;
43813;SDS011;29669;55.706;37.656;2023-08-20T00:59:52;19.70;;;14.52;;
43813;SDS011;29669;55.706;37.656;2023-08-20T01:02:22;24.60;;;15.05;;
43813;SDS011;29669;55.706;37.656;2023-08-20T01:04:50;23.88;;;14.85;;
43813;SDS011;29669;55.706;37.656;2023-08-20T01:07:28;16.10;;;13.43;;
43813;SDS011;29669;55.706;37.656;2023-08-20T01:10:07;23.05;;;15.35;;
43813;SDS011;29669;55.706;37.656;2023-08-20T01:12:35;19.58;;;14.38;;
43813;SDS011;29669;55.706;37.656;2023-08-20T01:15:03;29.45;;;13.70;;
43813;SDS011;29669;55.706;37.656;2023-08-20T01:17:31;17.77;;;13.63;;
43813;SDS011;29669;55.706;37.656;2023-08-20T01:19:59;24.17;;;15.18;;
43813;SDS011;29669;55.706;37.656;2023-08-20T01:25:28;17.83;;;12.50;;
43813;SDS011;29669;55.706;37.656;2023-08-20T01:30:46;22.17;;;13.30;;
43813;SDS011;29669;55.706;37.656;2023-08-20T01:33:15;22.80;;;14.23;;
43813;SDS011;29669;55.706;37.656;2023-08-20T01:35:43;23.38;;;13.95;;
43813;SDS011;29669;55.706;37.656;2023-08-20T01:38:17;18.05;;;13.38;;
43813;SDS011;29669;55.706;37.656;2023-08-20T01:40:44;22.17;;;15.00;;
43813;SDS011;29669;55.706;37.656;2023-08-20T01:43:12;22.77;;;14.38;;
43813;SDS011;29669;55.706;37.656;2023-08-20T01:45:40;21.70;;;13.88;;
43813;SDS011;29669;55.706;37.656;2023-08-20T01:48:08;22.17;;;13.38;;
43813;SDS011;29669;55.706;37.656;2023-08-20T01:50:36;23.23;;;14.80;;
43813;SDS011;29669;55.706;37.656;2023-08-20T01:53:04;22.10;;;14.02;;
43813;SDS011;29669;55.706;37.656;2023-08-20T01:55:32;20.60;;;14.73;;
43813;SDS011;29669;55.706;37.656;2023-08-20T01:58:00;19.98;;;14.05;;
43813;SDS011;29669;55.706;37.656;2023-08-20T02:00:27;22.35;;;14.73;;
43813;SDS011;29669;55.706;37.656;2023-08-20T02:02:57;18.55;;;14.18;;
43813;SDS011;29669;55.706;37.656;2023-08-20T02:05:25;22.33;;;14.68;;
43813;SDS011;29669;55.706;37.656;2023-08-20T02:07:53;22.63;;;14.85;;
43813;SDS011;29669;55.706;37.656;2023-08-20T02:10:21;30.23;;;15.63;;
43813;SDS011;29669;55.706;37.656;2023-08-20T02:12:49;24.45;;;14.55;;
43813;SDS011;29669;55.706;37.656;2023-08-20T02:15:17;23.85;;;16.45;;
43813;SDS011;29669;55.706;37.656;2023-08-20T02:17:45;25.88;;;16.20;;
43813;SDS011;29669;55.706;37.656;2023-08-20T02:20:14;27.63;;;15.57;;
43813;SDS011;29669;55.706;37.656;2023-08-20T02:22:42;23.92;;;16.25;;
43813;SDS011;29669;55.706;37.656;2023-08-20T02:25:10;23.40;;;14.38;;
43813;SDS011;29669;55.706;37.656;2023-08-20T02:27:38;21.13;;;14.63;;
43813;SDS011;29669;55.706;37.656;2023-08-20T02:30:05;22.52;;;15.60;;
43813;SDS011;29669;55.706;37.656;2023-08-20T02:32:35;26.02;;;15.38;;
43813;SDS011;29669;55.706;37.656;2023-08-20T02:35:03;22.10;;;14.85;;
43813;SDS011;29669;55.706;37.656;2023-08-20T02:37:32;23.92;;;15.18;;
43813;SDS011;29669;55.706;37.656;2023-08-20T02:40:00;29.70;;;15.43;;
43813;SDS011;29669;55.706;37.656;2023-08-20T02:42:30;19.20;;;15.13;;
43813;SDS011;29669;55.706;37.656;2023-08-20T02:44:57;30.40;;;17.02;;
43813;SDS011;29669;55.706;37.656;2023-08-20T02:47:25;31.60;;;16.80;;
43813;SDS011;29669;55.706;37.656;2023-08-20T02:49:53;29.98;;;16.58;;
43813;SDS011;29669;55.706;37.656;2023-08-20T02:52:20;23.42;;;15.52;;
43813;SDS011;29669;55.706;37.656;2023-08-20T02:54:48;29.23;;;16.08;;
43813;SDS011;29669;55.706;37.656;2023-08-20T02:57:15;27.52;;;15.80;;
43813;SDS011;29669;55.706;37.656;2023-08-20T02:59:43;26.15;;;15.38;;
43813;SDS011;29669;55.706;37.656;2023-08-20T03:02:11;27.02;;;15.23;;
43813;SDS011;29669;55.706;37.656;2023-08-20T03:04:38;26.58;;;14.68;;
43813;SDS011;29669;55.706;37.656;2023-08-20T03:07:06;29.55;;;14.70;;
43813;SDS011;29669;55.706;37.656;2023-08-20T03:09:34;25.08;;;15.48;;
43813;SDS011;29669;55.706;37.656;2023-08-20T03:12:02;24.05;;;16.05;;
43813;SDS011;29669;55.706;37.656;2023-08-20T03:14:29;22.17;;;15.65;;
43813;SDS011;29669;55.706;37.656;2023-08-20T03:16:57;24.08;;;16.25;;
43813;SDS011;29669;55.706;37.656;2023-08-20T03:19:25;19.77;;;15.43;;
43813;SDS011;29669;55.706;37.656;2023-08-20T03:21:53;22.95;;;15.15;;
43813;SDS011;29669;55.706;37.656;2023-08-20T03:24:20;21.73;;;15.27;;
43813;SDS011;29669;55.706;37.656;2023-08-20T03:26:48;23.45;;;16.25;;
43813;SDS011;29669;55.706;37.656;2023-08-20T03:29:16;20.40;;;15.57;;
43813;SDS011;29669;55.706;37.656;2023-08-20T03:31:44;23.52;;;16.30;;
43813;SDS011;29669;55.706;37.656;2023-08-20T03:39:17;19.60;;;14.70;;
43813;SDS011;29669;55.706;37.656;2023-08-20T05:36:34;16.90;;;13.38;;
43813;SDS011;29669;55.706;37.656;2023-08-20T05:39:09;18.42;;;13.43;;
43813;SDS011;29669;55.706;37.656;2023-08-20T05:41:40;18.67;;;14.00;;
43813;SDS011;29669;55.706;37.656;2023-08-20T05:44:09;19.15;;;14.48;;
43813;SDS011;29669;55.706;37.656;2023-08-20T05:46:37;16.02;;;12.27;;
43813;SDS011;29669;55.706;37.656;2023-08-20T05:49:08;17.23;;;12.07;;
43813;SDS011;29669;55.706;37.656;2023-08-20T05:51:35;16.80;;;12.85;;
43813;SDS011;29669;55.706;37.656;2023-08-20T05:54:04;17.48;;;12.05;;
43813;SDS011;29669;55.706;37.656;2023-08-20T06:22:56;21.05;;;12.77;;
43813;SDS011;29669;55.706;37.656;2023-08-20T06:32:06;17.00;;;13.13;;
43813;SDS011;29669;55.706;37.656;2023-08-20T10:58:58;7.03;;;5.05;;
43813;SDS011;29669;55.706;37.656;2023-08-20T11:01:26;6.35;;;5.75;;
43813;SDS011;29669;55.706;37.656;2023-08-20T11:04:24;6.88;;;6.20;;
43813;SDS011;29669;55.706;37.656;2023-08-20T11:08:12;7.22;;;5.28;;
43813;SDS011;29669;55.706;37.656;2023-08-20T11:10:55;6.38;;;5.53;;
43813;SDS011;29669;55.706;37.656;2023-08-20T11:13:31;5.93;;;5.35;;
43813;SDS011;29669;55.706;37.656;2023-08-20T11:16:03;5.93;;;5.20;;
43813;SDS011;29669;55.706;37.656;2023-08-20T11:18:38;5.93;;;5.28;;
43813;SDS011;29669;55.706;37.656;2023-08-20T11:24:09;5.30;;;4.72;;
43813;SDS011;29669;55.706;37.656;2023-08-20T11:41:48;7.18;;;5.50;;
43813;SDS011;29669;55.706;37.656;2023-08-20T11:44:21;9.05;;;5.90;;
43813;SDS011;29669;55.706;37.656;2023-08-20T11:46:48;6.70;;;5.38;;
43813;SDS011;29669;55.706;37.656;2023-08-20T11:49:15;6.90;;;5.20;;
43813;SDS011;29669;55.706;37.656;2023-08-20T11:51:42;9.75;;;5.30;;
43813;SDS011;29669;55.706;37.656;2023-08-20T11:54:12;6.38;;;5.78;;
43813;SDS011;29669;55.706;37.656;2023-08-20T11:56:49;10.07;;;5.93;;
43813;SDS011;29669;55.706;37.656;2023-08-20T11:59:57;10.25;;;6.40;;
43813;SDS011;29669;55.706;37.656;2023-08-20T12:02:54;7.75;;;6.05;;
43813;SDS011;29669;55.706;37.656;2023-08-20T12:05:53;9.55;;;6.45;;
43813;SDS011;29669;55.706;37.656;2023-08-20T12:18:26;11.40;;;3.67;;
43813;SDS011;29669;55.706;37.656;2023-08-20T13:08:44;8.70;;;2.92;;
43813;SDS011;29669;55.706;37.656;2023-08-20T13:11:13;11.30;;;3.42;;
43813;SDS011;29669;55.706;37.656;2023-08-20T13:28:21;8.45;;;6.40;;
43813;SDS011;29669;55.706;37.656;2023-08-20T14:09:49;8.77;;;7.75;;
43813;SDS011;29669;55.706;37.656;2023-08-20T14:13:12;12.23;;;8.40;;
43813;SDS011;29669;55.706;37.656;2023-08-20T14:15:42;12.25;;;8.68;;
43813;SDS011;29669;55.706;37.656;2023-08-20T14:18:10;28.25;;;12.88;;
43813;SDS011;29669;55.706;37.656;2023-08-20T14:20:37;9.77;;;7.85;;
43813;SDS011;29669;55.706;37.656;2023-08-20T14:23:05;41.35;;;18.55;;
43813;SDS011;29669;55.706;37.656;2023-08-20T14:25:35;10.40;;;7.43;;
43813;SDS011;29669;55.706;37.656;2023-08-20T14:52:30;21.02;;;12.05;;
43813;SDS011;29669;55.706;37.656;2023-08-20T14:54:57;21.83;;;11.40;;
43813;SDS011;29669;55.706;37.656;2023-08-20T14:57:25;12.50;;;6.68;;
43813;SDS011;29669;55.706;37.656;2023-08-20T15:00:09;7.53;;;5.90;;
43813;SDS011;29669;55.706;37.656;2023-08-20T15:02:43;6.80;;;5.80;;
43813;SDS011;29669;55.706;37.656;2023-08-20T15:05:12;7.40;;;5.82;;
43813;SDS011;29669;55.706;37.656;2023-08-20T15:07:46;6.22;;;5.60;;
43813;SDS011;29669;55.706;37.656;2023-08-20T15:10:16;9.48;;;6.07;;
43813;SDS011;29669;55.706;37.656;2023-08-20T15:13:03;11.07;;;6.78;;
43813;SDS011;29669;55.706;37.656;2023-08-20T15:16:45;11.10;;;7.10;;
43813;SDS011;29669;55.706;37.656;2023-08-20T15:28:30;12.10;;;7.93;;
43813;SDS011;29669;55.706;37.656;2023-08-20T16:04:44;10.98;;;9.20;;
43813;SDS011;29669;55.706;37.656;2023-08-20T16:07:13;12.68;;;9.05;;
43813;SDS011;29669;55.706;37.656;2023-08-20T16:09:43;9.35;;;7.40;;
43813;SDS011;29669;55.706;37.656;2023-08-20T16:17:01;11.20;;;8.48;;
43813;SDS011;29669;55.706;37.656;2023-08-20T16:19:46;12.82;;;8.85;;
43813;SDS011;29669;55.706;37.656;2023-08-20T16:22:13;13.13;;;9.05;;
43813;SDS011;29669;55.706;37.656;2023-08-20T16:24:47;11.70;;;8.55;;
43813;SDS011;29669;55.706;37.656;2023-08-20T16:27:15;11.30;;;8.77;;
43813;SDS011;29669;55.706;37.656;2023-08-20T16:29:47;13.98;;;10.95;;
43813;SDS011;29669;55.706;37.656;2023-08-20T16:32:15;10.40;;;8.35;;
43813;SDS011;29669;55.706;37.656;2023-08-20T16:34:45;13.82;;;9.55;;
43813;SDS011;29669;55.706;37.656;2023-08-20T16:37:14;11.05;;;8.48;;
43813;SDS011;29669;55.706;37.656;2023-08-20T16:39:41;12.00;;;9.68;;
43813;SDS011;29669;55.706;37.656;2023-08-20T16:42:09;13.38;;;9.98;;
43813;SDS011;29669;55.706;37.656;2023-08-20T16:44:37;10.82;;;8.38;;
43813;SDS011;29669;55.706;37.656;2023-08-20T16:47:05;9.23;;;7.40;;
43813;SDS011;29669;55.706;37.656;2023-08-20T16:49:33;7.40;;;6.53;;
43813;SDS011;29669;55.706;37.656;2023-08-20T16:52:00;7.32;;;6.53;;
43813;SDS011;29669;55.706;37.656;2023-08-20T16:54:29;8.35;;;6.47;;
43813;SDS011;29669;55.706;37.656;2023-08-20T16:56:57;7.50;;;6.55;;
43813;SDS011;29669;55.706;37.656;2023-08-20T16:59:24;10.02;;;6.20;;
43813;SDS011;29669;55.706;37.656;2023-08-20T17:01:52;6.85;;;6.13;;
43813;SDS011;29669;55.706;37.656;2023-08-20T17:04:19;8.70;;;6.07;;
43813;SDS011;29669;55.706;37.656;2023-08-20T17:06:46;6.40;;;5.80;;
43813;SDS011;29669;55.706;37.656;2023-08-20T17:09:15;9.35;;;6.65;;
43813;SDS011;29669;55.706;37.656;2023-08-20T17:11:43;6.55;;;5.80;;
43813;SDS011;29669;55.706;37.656;2023-08-20T17:14:22;8.57;;;7.05;;
43813;SDS011;29669;55.706;37.656;2023-08-20T17:17:28;8.75;;;6.13;;
43813;SDS011;29669;55.706;37.656;2023-08-20T17:19:56;6.38;;;5.78;;
43813;SDS011;29669;55.706;37.656;2023-08-20T17:22:24;9.50;;;5.95;;
43813;SDS011;29669;55.706;37.656;2023-08-20T17:38:27;6.30;;;4.95;;
43813;SDS011;29669;55.706;37.656;2023-08-20T17:45:49;8.55;;;4.65;;
43813;SDS011;29669;55.706;37.656;2023-08-20T17:48:37;4.93;;;4.10;;
43813;SDS011;29669;55.706;37.656;2023-08-20T17:51:09;6.00;;;4.95;;
43813;SDS011;29669;55.706;37.656;2023-08-20T17:53:37;5.18;;;4.57;;
43813;SDS011;29669;55.706;37.656;2023-08-20T18:34:14;3.90;;;3.50;;
43813;SDS011;29669;55.706;37.656;2023-08-20T18:41:53;3.45;;;3.15;;
43813;SDS011;29669;55.706;37.656;2023-08-20T18:44:21;5.40;;;3.45;;
43813;SDS011;29669;55.706;37.656;2023-08-20T18:46:49;3.88;;;3.08;;
43813;SDS011;29669;55.706;37.656;2023-08-20T18:49:17;3.63;;;2.90;;
43813;SDS011;29669;55.706;37.656;2023-08-20T18:51:45;2.90;;;2.60;;
43813;SDS011;29669;55.706;37.656;2023-08-20T19:50:42;3.47;;;2.70;;
43813;SDS011;29669;55.706;37.656;2023-08-20T19:53:23;3.47;;;2.92;;
43813;SDS011;29669;55.706;37.656;2023-08-20T19:55:50;3.58;;;3.28;;
43813;SDS011;29669;55.706;37.656;2023-08-20T20:01:57;6.63;;;3.35;;
43813;SDS011;29669;55.706;37.656;2023-08-20T20:04:23;3.85;;;3.45;;
43813;SDS011;29669;55.706;37.656;2023-08-20T20:06:52;4.93;;;2.78;;
43813;SDS011;29669;55.706;37.656;2023-08-20T20:09:44;4.72;;;3.05;;
43813;SDS011;29669;55.706;37.656;2023-08-20T20:12:26;6.93;;;3.38;;
43813;SDS011;29669;55.706;37.656;2023-08-20T20:14:59;4.15;;;3.22;;
43813;SDS011;29669;55.706;37.656;2023-08-20T20:17:36;7.15;;;3.30;;
43813;SDS011;29669;55.706;37.656;2023-08-20T20:20:14;4.68;;;3.13;;
43813;SDS011;29669;55.706;37.656;2023-08-20T20:23:31;3.55;;;3.20;;
43813;SDS011;29669;55.706;37.656;2023-08-20T20:26:04;3.45;;;3.05;;
43813;SDS011;29669;55.706;37.656;2023-08-20T20:29:14;5.28;;;3.20;;
43813;SDS011;29669;55.706;37.656;2023-08-20T20:31:42;4.22;;;3.20;;
43813;SDS011;29669;55.706;37.656;2023-08-20T20:35:20;4.95;;;3.28;;
43813;SDS011;29669;55.706;37.656;2023-08-20T20:43:15;4.35;;;3.13;;
43813;SDS011;29669;55.706;37.656;2023-08-20T20:46:42;5.93;;;3.10;;
43813;SDS011;29669;55.706;37.656;2023-08-20T20:53:53;4.38;;;3.10;;
43813;SDS011;29669;55.706;37.656;2023-08-20T20:56:29;3.28;;;2.95;;
43813;SDS011;29669;55.706;37.656;2023-08-20T20:59:53;4.22;;;3.03;;
43813;SDS011;29669;55.706;37.656;2023-08-20T22:47:05;2.13;;;1.38;;
43813;SDS011;29669;55.706;37.656;2023-08-20T22:50:59;1.55;;;1.45;;
43813;SDS011;29669;55.706;37.656;2023-08-20T22:55:13;1.52;;;1.42;;
